createdAt,value
2018-09-23T00:05:18.086Z,56.4
2018-09-23T00:22:04.693Z,56.4
2018-09-23T00:38:51.514Z,56.4
2018-09-23T00:55:38.226Z,56.4
2018-09-23T01:12:24.425Z,56.4
2018-09-23T01:29:11.056Z,56.4
2018-09-23T01:45:57.610Z,56.8
2018-09-23T02:02:44.104Z,56.8
2018-09-23T02:19:30.751Z,56.8
2018-09-23T02:36:17.078Z,56.4
2018-09-23T02:53:03.592Z,56.8
2018-09-23T03:09:50.126Z,56.8
2018-09-23T03:26:36.546Z,56.8
2018-09-23T03:43:22.840Z,56.8
2018-09-23T04:00:09.318Z,56.8
2018-09-23T04:16:55.689Z,56.4
2018-09-23T04:33:42.000Z,56.4
2018-09-23T04:50:28.491Z,56.4
2018-09-23T05:07:14.847Z,56.4
2018-09-23T05:24:01.157Z,56.4
2018-09-23T05:40:47.512Z,56.4
2018-09-23T05:57:33.953Z,56.4
2018-09-23T06:14:20.336Z,56.4
2018-09-23T06:31:06.588Z,56.4
2018-09-23T06:47:52.985Z,56.4
2018-09-23T07:04:40.015Z,56.4
2018-09-23T07:21:25.556Z,56.4
2018-09-23T07:38:12.376Z,56.0
2018-09-23T07:54:58.333Z,56.0
2018-09-23T08:11:44.729Z,56.0
2018-09-23T08:28:31.218Z,56.0
2018-09-23T08:45:19.713Z,56.0
2018-09-23T09:18:50.646Z,56.0
2018-09-23T09:35:38.117Z,55.6
2018-09-23T09:52:24.665Z,56.0
2018-09-23T10:09:11.311Z,56.0
2018-09-23T10:25:58.320Z,56.0
2018-09-23T10:42:45.496Z,56.0
2018-09-23T10:59:32.682Z,56.0
2018-09-23T11:16:19.554Z,56.0
2018-09-23T11:33:06.511Z,56.4
2018-09-23T11:49:53.653Z,56.4
2018-09-23T12:06:40.593Z,56.0
2018-09-23T12:23:27.771Z,56.0
2018-09-23T12:40:14.419Z,56.4
2018-09-23T12:57:01.256Z,56.4
2018-09-23T13:13:48.107Z,56.4
2018-09-23T13:30:35.080Z,56.8
2018-09-23T13:47:21.962Z,56.8
2018-09-23T14:04:08.706Z,56.8
2018-09-23T14:20:55.711Z,57.2
2018-09-23T14:37:42.709Z,58.4
2018-09-23T14:54:30.206Z,59.6
2018-09-23T15:11:16.585Z,60.0
2018-09-23T15:28:03.726Z,60.8
2018-09-23T15:44:50.920Z,60.8
2018-09-23T16:01:37.725Z,60.8
2018-09-23T16:18:23.970Z,60.8
2018-09-23T16:35:10.202Z,60.0
2018-09-23T16:51:56.631Z,60.4
2018-09-23T17:08:42.958Z,59.6
2018-09-23T17:25:29.465Z,59.6
2018-09-23T17:42:15.865Z,59.6
2018-09-23T17:59:02.235Z,59.6
2018-09-23T18:15:48.740Z,59.6
2018-09-23T18:32:35.120Z,59.6
2018-09-23T18:49:21.127Z,59.6
2018-09-23T19:06:07.586Z,59.6
2018-09-23T19:22:53.925Z,59.6
2018-09-23T19:39:40.184Z,59.6
2018-09-23T19:56:26.187Z,60.0
2018-09-23T20:13:12.580Z,60.0
2018-09-23T20:29:58.948Z,60.0
2018-09-23T20:46:45.366Z,60.0
2018-09-23T21:03:31.769Z,59.6
2018-09-23T21:20:18.598Z,59.6
2018-09-23T21:37:04.461Z,59.6
2018-09-23T21:53:50.710Z,59.2
2018-09-23T22:10:36.972Z,59.2
2018-09-23T22:27:23.143Z,59.2
2018-09-23T22:44:09.753Z,59.2
2018-09-23T23:00:55.330Z,58.8
2018-09-23T23:17:41.748Z,58.8
2018-09-23T23:34:27.243Z,58.8
2018-09-23T23:51:13.000Z,58.8
